MYF weather

Montgomery-Gibbs Executive Airport
San Diego, California, United States

Public forecast

Using degrees Fahrenheit for public forecast. Weather courtesy of forecast.io.

Current aviation weather report (METAR) for Montgomery-Gibbs Executive Airport

Retrieved 2019/11/18 17:53 UTC (35 minutes ago):

KMYF 181753Z 04003KT 10SM CLR 32/M03 A2990 RMK AO2 SLP117 T03171033 10317 20161 58008

Closest aviation forecast (TAF) to Montgomery-Gibbs Executive Airport

Forecast is more than 12 hours old.

Closest forecast is Miramar Marine Corps Air Station - Mitscher Field, 3.2 nm (5.9 km) N. Retrieved 2014/11/27 15:09 UTC (5 years ago):

TAF COR KNKX 271500Z 2715/2815 VRB05KT 9999 SKC QNH3001INS BECMG 2806/2808 07007KT QNH2998INS TX30/2721Z TN14/2812Z COR 1520